sensor_id;sensor_type;location;lat;lon;timestamp;P1;durP1;ratioP1;P2;durP2;ratioP2
16504;SDS011;8365;51.030;4.696;2023-02-28T00:00:30;11.07;;;8.70;;
16504;SDS011;8365;51.030;4.696;2023-02-28T00:03:01;12.30;;;8.10;;
16504;SDS011;8365;51.030;4.696;2023-02-28T00:05:32;11.00;;;8.70;;
16504;SDS011;8365;51.030;4.696;2023-02-28T00:08:02;9.27;;;8.33;;
16504;SDS011;8365;51.030;4.696;2023-02-28T00:10:33;11.97;;;8.37;;
16504;SDS011;8365;51.030;4.696;2023-02-28T00:13:05;11.23;;;9.10;;
16504;SDS011;8365;51.030;4.696;2023-02-28T00:15:36;11.27;;;9.00;;
16504;SDS011;8365;51.030;4.696;2023-02-28T00:18:07;11.47;;;8.43;;
16504;SDS011;8365;51.030;4.696;2023-02-28T00:20:37;12.70;;;9.43;;
16504;SDS011;8365;51.030;4.696;2023-02-28T00:23:08;12.33;;;10.03;;
16504;SDS011;8365;51.030;4.696;2023-02-28T00:25:38;10.50;;;9.40;;
16504;SDS011;8365;51.030;4.696;2023-02-28T00:28:09;12.17;;;9.00;;
16504;SDS011;8365;51.030;4.696;2023-02-28T00:30:39;11.20;;;9.43;;
16504;SDS011;8365;51.030;4.696;2023-02-28T00:33:10;10.00;;;9.10;;
16504;SDS011;8365;51.030;4.696;2023-02-28T00:35:40;12.17;;;9.77;;
16504;SDS011;8365;51.030;4.696;2023-02-28T00:38:12;12.60;;;10.63;;
16504;SDS011;8365;51.030;4.696;2023-02-28T00:40:43;10.80;;;9.40;;
16504;SDS011;8365;51.030;4.696;2023-02-28T00:43:14;12.80;;;9.47;;
16504;SDS011;8365;51.030;4.696;2023-02-28T00:45:44;11.03;;;9.33;;
16504;SDS011;8365;51.030;4.696;2023-02-28T00:48:15;11.13;;;9.20;;
16504;SDS011;8365;51.030;4.696;2023-02-28T00:50:48;12.57;;;9.43;;
16504;SDS011;8365;51.030;4.696;2023-02-28T00:53:19;11.03;;;9.80;;
16504;SDS011;8365;51.030;4.696;2023-02-28T00:55:50;12.10;;;10.10;;
16504;SDS011;8365;51.030;4.696;2023-02-28T00:58:21;12.17;;;9.33;;
16504;SDS011;8365;51.030;4.696;2023-02-28T01:00:51;13.90;;;9.70;;
16504;SDS011;8365;51.030;4.696;2023-02-28T01:03:22;11.97;;;9.77;;
16504;SDS011;8365;51.030;4.696;2023-02-28T01:05:53;15.90;;;10.80;;
16504;SDS011;8365;51.030;4.696;2023-02-28T01:08:23;13.90;;;10.40;;
16504;SDS011;8365;51.030;4.696;2023-02-28T01:10:55;11.47;;;10.23;;
16504;SDS011;8365;51.030;4.696;2023-02-28T01:13:26;14.60;;;10.07;;
16504;SDS011;8365;51.030;4.696;2023-02-28T01:15:56;12.37;;;10.37;;
16504;SDS011;8365;51.030;4.696;2023-02-28T01:18:27;12.17;;;9.37;;
16504;SDS011;8365;51.030;4.696;2023-02-28T01:20:58;11.97;;;10.03;;
16504;SDS011;8365;51.030;4.696;2023-02-28T01:23:36;11.57;;;10.07;;
16504;SDS011;8365;51.030;4.696;2023-02-28T01:26:08;16.50;;;10.60;;
16504;SDS011;8365;51.030;4.696;2023-02-28T01:28:40;14.03;;;12.57;;
16504;SDS011;8365;51.030;4.696;2023-02-28T01:31:11;12.43;;;10.70;;
16504;SDS011;8365;51.030;4.696;2023-02-28T01:33:42;13.40;;;10.33;;
16504;SDS011;8365;51.030;4.696;2023-02-28T01:36:15;14.27;;;11.47;;
16504;SDS011;8365;51.030;4.696;2023-02-28T01:38:47;14.73;;;11.03;;
16504;SDS011;8365;51.030;4.696;2023-02-28T01:41:28;13.93;;;12.47;;
16504;SDS011;8365;51.030;4.696;2023-02-28T01:44:05;13.57;;;11.57;;
16504;SDS011;8365;51.030;4.696;2023-02-28T01:46:56;14.30;;;12.17;;
16504;SDS011;8365;51.030;4.696;2023-02-28T01:49:26;13.93;;;12.47;;
16504;SDS011;8365;51.030;4.696;2023-02-28T01:51:57;13.13;;;11.53;;
16504;SDS011;8365;51.030;4.696;2023-02-28T01:54:29;14.07;;;12.40;;
16504;SDS011;8365;51.030;4.696;2023-02-28T01:57:03;15.20;;;12.27;;
16504;SDS011;8365;51.030;4.696;2023-02-28T01:59:48;18.13;;;16.13;;
16504;SDS011;8365;51.030;4.696;2023-02-28T02:02:30;14.87;;;12.47;;
16504;SDS011;8365;51.030;4.696;2023-02-28T02:05:12;13.83;;;12.37;;
16504;SDS011;8365;51.030;4.696;2023-02-28T02:07:46;14.70;;;11.93;;
16504;SDS011;8365;51.030;4.696;2023-02-28T02:10:31;16.50;;;12.97;;
16504;SDS011;8365;51.030;4.696;2023-02-28T02:13:08;14.53;;;11.70;;
16504;SDS011;8365;51.030;4.696;2023-02-28T02:18:25;16.17;;;11.30;;
16504;SDS011;8365;51.030;4.696;2023-02-28T02:35:28;16.77;;;12.03;;
16504;SDS011;8365;51.030;4.696;2023-02-28T02:38:11;16.37;;;12.37;;
16504;SDS011;8365;51.030;4.696;2023-02-28T02:43:48;16.60;;;12.97;;
16504;SDS011;8365;51.030;4.696;2023-02-28T02:46:28;16.67;;;13.27;;
16504;SDS011;8365;51.030;4.696;2023-02-28T02:49:03;15.67;;;12.17;;
16504;SDS011;8365;51.030;4.696;2023-02-28T02:51:38;16.13;;;12.97;;
16504;SDS011;8365;51.030;4.696;2023-02-28T02:54:13;15.50;;;12.83;;
16504;SDS011;8365;51.030;4.696;2023-02-28T02:56:50;18.53;;;12.53;;
16504;SDS011;8365;51.030;4.696;2023-02-28T02:59:21;16.07;;;12.37;;
16504;SDS011;8365;51.030;4.696;2023-02-28T03:01:57;17.27;;;12.60;;
16504;SDS011;8365;51.030;4.696;2023-02-28T03:04:32;16.03;;;12.50;;
16504;SDS011;8365;51.030;4.696;2023-02-28T03:07:08;18.80;;;15.40;;
16504;SDS011;8365;51.030;4.696;2023-02-28T03:09:39;16.33;;;12.77;;
16504;SDS011;8365;51.030;4.696;2023-02-28T03:12:11;16.67;;;12.27;;
16504;SDS011;8365;51.030;4.696;2023-02-28T03:17:55;19.33;;;12.30;;
16504;SDS011;8365;51.030;4.696;2023-02-28T03:23:38;14.33;;;11.67;;
16504;SDS011;8365;51.030;4.696;2023-02-28T03:26:17;17.23;;;13.43;;
16504;SDS011;8365;51.030;4.696;2023-02-28T03:31:30;18.50;;;13.77;;
16504;SDS011;8365;51.030;4.696;2023-02-28T03:34:15;18.37;;;13.83;;
16504;SDS011;8365;51.030;4.696;2023-02-28T03:36:54;15.20;;;11.87;;
16504;SDS011;8365;51.030;4.696;2023-02-28T03:39:31;15.43;;;11.70;;
16504;SDS011;8365;51.030;4.696;2023-02-28T03:42:18;15.70;;;12.70;;
16504;SDS011;8365;51.030;4.696;2023-02-28T03:44:53;16.50;;;12.83;;
16504;SDS011;8365;51.030;4.696;2023-02-28T03:47:41;19.23;;;13.27;;
16504;SDS011;8365;51.030;4.696;2023-02-28T03:50:53;19.20;;;12.90;;
16504;SDS011;8365;51.030;4.696;2023-02-28T03:53:52;14.27;;;11.90;;
16504;SDS011;8365;51.030;4.696;2023-02-28T03:56:28;16.13;;;13.23;;
16504;SDS011;8365;51.030;4.696;2023-02-28T03:59:13;19.93;;;15.90;;
16504;SDS011;8365;51.030;4.696;2023-02-28T04:01:48;17.40;;;12.90;;
16504;SDS011;8365;51.030;4.696;2023-02-28T04:04:19;18.13;;;12.63;;
16504;SDS011;8365;51.030;4.696;2023-02-28T04:06:52;15.70;;;12.80;;
16504;SDS011;8365;51.030;4.696;2023-02-28T04:09:32;20.57;;;13.93;;
16504;SDS011;8365;51.030;4.696;2023-02-28T04:12:02;16.63;;;13.53;;
16504;SDS011;8365;51.030;4.696;2023-02-28T04:14:33;13.20;;;11.50;;
16504;SDS011;8365;51.030;4.696;2023-02-28T04:17:04;16.23;;;12.27;;
16504;SDS011;8365;51.030;4.696;2023-02-28T04:19:34;17.10;;;12.70;;
16504;SDS011;8365;51.030;4.696;2023-02-28T04:22:05;19.33;;;15.97;;
16504;SDS011;8365;51.030;4.696;2023-02-28T04:24:35;16.53;;;13.37;;
16504;SDS011;8365;51.030;4.696;2023-02-28T04:27:06;15.33;;;13.03;;
16504;SDS011;8365;51.030;4.696;2023-02-28T04:29:38;14.27;;;12.40;;
16504;SDS011;8365;51.030;4.696;2023-02-28T04:32:08;18.67;;;13.00;;
16504;SDS011;8365;51.030;4.696;2023-02-28T04:34:39;16.67;;;12.13;;
16504;SDS011;8365;51.030;4.696;2023-02-28T04:37:09;16.27;;;12.97;;
16504;SDS011;8365;51.030;4.696;2023-02-28T04:39:40;18.37;;;12.57;;
16504;SDS011;8365;51.030;4.696;2023-02-28T04:42:11;15.03;;;12.73;;
16504;SDS011;8365;51.030;4.696;2023-02-28T04:44:42;20.67;;;13.33;;
16504;SDS011;8365;51.030;4.696;2023-02-28T04:47:13;17.57;;;15.67;;
16504;SDS011;8365;51.030;4.696;2023-02-28T04:49:43;15.40;;;12.90;;
16504;SDS011;8365;51.030;4.696;2023-02-28T04:52:14;17.10;;;13.10;;
16504;SDS011;8365;51.030;4.696;2023-02-28T04:54:44;17.67;;;13.57;;
16504;SDS011;8365;51.030;4.696;2023-02-28T04:57:15;14.33;;;12.07;;
16504;SDS011;8365;51.030;4.696;2023-02-28T04:59:48;16.17;;;12.67;;
16504;SDS011;8365;51.030;4.696;2023-02-28T05:02:18;15.37;;;12.63;;
16504;SDS011;8365;51.030;4.696;2023-02-28T05:04:50;16.27;;;13.53;;
16504;SDS011;8365;51.030;4.696;2023-02-28T05:07:20;16.83;;;12.67;;
16504;SDS011;8365;51.030;4.696;2023-02-28T05:09:51;16.63;;;14.07;;
16504;SDS011;8365;51.030;4.696;2023-02-28T05:12:21;16.10;;;11.97;;
16504;SDS011;8365;51.030;4.696;2023-02-28T05:14:51;15.40;;;12.00;;
16504;SDS011;8365;51.030;4.696;2023-02-28T05:17:22;15.20;;;12.40;;
16504;SDS011;8365;51.030;4.696;2023-02-28T05:19:52;14.17;;;11.73;;
16504;SDS011;8365;51.030;4.696;2023-02-28T05:22:23;15.33;;;11.60;;
16504;SDS011;8365;51.030;4.696;2023-02-28T05:24:53;17.03;;;11.80;;
16504;SDS011;8365;51.030;4.696;2023-02-28T05:27:24;15.47;;;11.80;;
16504;SDS011;8365;51.030;4.696;2023-02-28T05:29:54;17.20;;;12.30;;
16504;SDS011;8365;51.030;4.696;2023-02-28T05:32:26;17.23;;;15.00;;
16504;SDS011;8365;51.030;4.696;2023-02-28T05:34:56;15.33;;;11.70;;
16504;SDS011;8365;51.030;4.696;2023-02-28T05:37:26;12.77;;;11.00;;
16504;SDS011;8365;51.030;4.696;2023-02-28T05:39:57;18.50;;;15.17;;
16504;SDS011;8365;51.030;4.696;2023-02-28T05:42:30;13.60;;;11.40;;
16504;SDS011;8365;51.030;4.696;2023-02-28T05:45:00;15.13;;;12.43;;
16504;SDS011;8365;51.030;4.696;2023-02-28T05:47:31;15.27;;;12.77;;
16504;SDS011;8365;51.030;4.696;2023-02-28T05:50:01;14.73;;;12.03;;
16504;SDS011;8365;51.030;4.696;2023-02-28T05:52:33;16.47;;;12.43;;
16504;SDS011;8365;51.030;4.696;2023-02-28T05:55:03;15.90;;;12.77;;
16504;SDS011;8365;51.030;4.696;2023-02-28T05:57:34;19.27;;;13.67;;
16504;SDS011;8365;51.030;4.696;2023-02-28T06:00:05;13.93;;;11.17;;
16504;SDS011;8365;51.030;4.696;2023-02-28T06:02:38;15.07;;;12.13;;
16504;SDS011;8365;51.030;4.696;2023-02-28T06:05:14;15.80;;;12.37;;
16504;SDS011;8365;51.030;4.696;2023-02-28T06:07:46;13.67;;;11.00;;
16504;SDS011;8365;51.030;4.696;2023-02-28T06:10:17;15.43;;;11.37;;
16504;SDS011;8365;51.030;4.696;2023-02-28T06:12:47;14.90;;;11.23;;
16504;SDS011;8365;51.030;4.696;2023-02-28T06:15:20;19.47;;;11.40;;
16504;SDS011;8365;51.030;4.696;2023-02-28T06:17:51;13.70;;;11.10;;
16504;SDS011;8365;51.030;4.696;2023-02-28T06:20:22;16.73;;;11.03;;
16504;SDS011;8365;51.030;4.696;2023-02-28T06:22:55;15.47;;;11.70;;
16504;SDS011;8365;51.030;4.696;2023-02-28T06:25:28;14.23;;;11.07;;
16504;SDS011;8365;51.030;4.696;2023-02-28T06:27:58;15.30;;;11.67;;
16504;SDS011;8365;51.030;4.696;2023-02-28T06:30:29;17.03;;;13.73;;
16504;SDS011;8365;51.030;4.696;2023-02-28T06:33:03;16.27;;;13.93;;
16504;SDS011;8365;51.030;4.696;2023-02-28T06:35:34;18.27;;;13.13;;
16504;SDS011;8365;51.030;4.696;2023-02-28T06:38:04;18.50;;;12.87;;
16504;SDS011;8365;51.030;4.696;2023-02-28T06:40:35;19.03;;;14.00;;
16504;SDS011;8365;51.030;4.696;2023-02-28T06:43:05;18.13;;;14.10;;
16504;SDS011;8365;51.030;4.696;2023-02-28T06:45:36;19.27;;;13.10;;
16504;SDS011;8365;51.030;4.696;2023-02-28T06:48:07;21.53;;;13.17;;
16504;SDS011;8365;51.030;4.696;2023-02-28T06:50:37;19.63;;;14.17;;
16504;SDS011;8365;51.030;4.696;2023-02-28T06:53:08;22.07;;;14.73;;
16504;SDS011;8365;51.030;4.696;2023-02-28T06:55:39;15.67;;;13.13;;
16504;SDS011;8365;51.030;4.696;2023-02-28T06:58:14;20.27;;;16.03;;
16504;SDS011;8365;51.030;4.696;2023-02-28T07:00:45;19.33;;;12.50;;
16504;SDS011;8365;51.030;4.696;2023-02-28T07:03:15;22.43;;;19.60;;
16504;SDS011;8365;51.030;4.696;2023-02-28T07:05:47;19.13;;;13.97;;
16504;SDS011;8365;51.030;4.696;2023-02-28T07:08:20;22.33;;;18.63;;
16504;SDS011;8365;51.030;4.696;2023-02-28T07:10:54;15.27;;;13.60;;
16504;SDS011;8365;51.030;4.696;2023-02-28T07:13:25;19.80;;;12.27;;
16504;SDS011;8365;51.030;4.696;2023-02-28T07:16:03;17.60;;;12.10;;
16504;SDS011;8365;51.030;4.696;2023-02-28T07:18:35;19.10;;;13.03;;
16504;SDS011;8365;51.030;4.696;2023-02-28T07:21:07;14.37;;;12.97;;
16504;SDS011;8365;51.030;4.696;2023-02-28T07:23:39;17.70;;;12.77;;
16504;SDS011;8365;51.030;4.696;2023-02-28T07:26:14;14.60;;;12.40;;
16504;SDS011;8365;51.030;4.696;2023-02-28T07:28:47;15.17;;;12.93;;
16504;SDS011;8365;51.030;4.696;2023-02-28T07:31:18;14.50;;;11.50;;
16504;SDS011;8365;51.030;4.696;2023-02-28T07:33:49;17.60;;;11.87;;
16504;SDS011;8365;51.030;4.696;2023-02-28T07:36:19;18.23;;;16.37;;
16504;SDS011;8365;51.030;4.696;2023-02-28T07:38:52;13.90;;;11.63;;
16504;SDS011;8365;51.030;4.696;2023-02-28T07:41:25;16.10;;;13.57;;
16504;SDS011;8365;51.030;4.696;2023-02-28T07:43:57;21.93;;;16.13;;
16504;SDS011;8365;51.030;4.696;2023-02-28T07:46:29;16.87;;;11.03;;
16504;SDS011;8365;51.030;4.696;2023-02-28T07:49:05;14.27;;;9.00;;
16504;SDS011;8365;51.030;4.696;2023-02-28T07:51:36;10.77;;;8.80;;
16504;SDS011;8365;51.030;4.696;2023-02-28T07:54:06;10.70;;;8.87;;
16504;SDS011;8365;51.030;4.696;2023-02-28T07:56:37;9.97;;;8.67;;
16504;SDS011;8365;51.030;4.696;2023-02-28T07:59:08;10.77;;;9.67;;
16504;SDS011;8365;51.030;4.696;2023-02-28T08:01:39;11.13;;;9.60;;
16504;SDS011;8365;51.030;4.696;2023-02-28T08:04:09;10.37;;;8.97;;
16504;SDS011;8365;51.030;4.696;2023-02-28T08:06:40;9.87;;;7.90;;
16504;SDS011;8365;51.030;4.696;2023-02-28T08:09:10;13.90;;;7.90;;
16504;SDS011;8365;51.030;4.696;2023-02-28T08:11:41;11.23;;;7.67;;
16504;SDS011;8365;51.030;4.696;2023-02-28T08:14:12;14.40;;;7.63;;
16504;SDS011;8365;51.030;4.696;2023-02-28T08:16:42;11.70;;;8.20;;
16504;SDS011;8365;51.030;4.696;2023-02-28T08:19:13;10.40;;;7.07;;
16504;SDS011;8365;51.030;4.696;2023-02-28T08:21:43;10.13;;;6.80;;
16504;SDS011;8365;51.030;4.696;2023-02-28T08:24:13;8.13;;;6.07;;
16504;SDS011;8365;51.030;4.696;2023-02-28T08:26:44;8.07;;;5.77;;
16504;SDS011;8365;51.030;4.696;2023-02-28T08:29:14;7.53;;;6.70;;
16504;SDS011;8365;51.030;4.696;2023-02-28T08:31:45;7.30;;;6.60;;
16504;SDS011;8365;51.030;4.696;2023-02-28T08:34:18;8.37;;;5.70;;
16504;SDS011;8365;51.030;4.696;2023-02-28T08:36:49;7.57;;;5.60;;
16504;SDS011;8365;51.030;4.696;2023-02-28T08:39:19;6.60;;;5.87;;
16504;SDS011;8365;51.030;4.696;2023-02-28T08:41:50;6.40;;;5.50;;
16504;SDS011;8365;51.030;4.696;2023-02-28T08:44:20;6.40;;;5.80;;
16504;SDS011;8365;51.030;4.696;2023-02-28T08:46:51;6.33;;;5.37;;
16504;SDS011;8365;51.030;4.696;2023-02-28T08:49:24;7.00;;;4.70;;
16504;SDS011;8365;51.030;4.696;2023-02-28T08:51:54;5.03;;;4.57;;
16504;SDS011;8365;51.030;4.696;2023-02-28T08:54:27;5.53;;;4.93;;
16504;SDS011;8365;51.030;4.696;2023-02-28T08:57:02;6.93;;;5.07;;
16504;SDS011;8365;51.030;4.696;2023-02-28T08:59:34;7.17;;;4.93;;
16504;SDS011;8365;51.030;4.696;2023-02-28T09:02:05;5.30;;;4.80;;
16504;SDS011;8365;51.030;4.696;2023-02-28T09:04:37;6.63;;;4.70;;
16504;SDS011;8365;51.030;4.696;2023-02-28T09:07:08;5.43;;;4.60;;
16504;SDS011;8365;51.030;4.696;2023-02-28T09:09:38;6.57;;;5.07;;
16504;SDS011;8365;51.030;4.696;2023-02-28T09:12:24;6.87;;;4.37;;
16504;SDS011;8365;51.030;4.696;2023-02-28T09:14:55;6.33;;;5.00;;
16504;SDS011;8365;51.030;4.696;2023-02-28T09:17:26;7.47;;;4.90;;
16504;SDS011;8365;51.030;4.696;2023-02-28T09:19:56;6.47;;;4.67;;
16504;SDS011;8365;51.030;4.696;2023-02-28T09:22:27;5.53;;;4.63;;
16504;SDS011;8365;51.030;4.696;2023-02-28T09:24:58;6.37;;;4.10;;
16504;SDS011;8365;51.030;4.696;2023-02-28T09:27:28;6.57;;;4.30;;
16504;SDS011;8365;51.030;4.696;2023-02-28T09:29:59;3.97;;;3.60;;
16504;SDS011;8365;51.030;4.696;2023-02-28T09:32:29;4.67;;;4.17;;
16504;SDS011;8365;51.030;4.696;2023-02-28T09:35:02;6.07;;;4.13;;
16504;SDS011;8365;51.030;4.696;2023-02-28T09:37:35;4.33;;;3.93;;
16504;SDS011;8365;51.030;4.696;2023-02-28T09:40:06;4.07;;;3.67;;
16504;SDS011;8365;51.030;4.696;2023-02-28T09:42:38;6.63;;;4.53;;
16504;SDS011;8365;51.030;4.696;2023-02-28T09:45:25;4.83;;;3.50;;
16504;SDS011;8365;51.030;4.696;2023-02-28T09:48:10;3.60;;;3.30;;
16504;SDS011;8365;51.030;4.696;2023-02-28T09:50:49;6.90;;;3.53;;
16504;SDS011;8365;51.030;4.696;2023-02-28T09:53:30;5.27;;;3.27;;
16504;SDS011;8365;51.030;4.696;2023-02-28T09:56:13;4.83;;;3.40;;
16504;SDS011;8365;51.030;4.696;2023-02-28T09:58:49;3.73;;;3.43;;
16504;SDS011;8365;51.030;4.696;2023-02-28T10:01:27;4.37;;;3.47;;
16504;SDS011;8365;51.030;4.696;2023-02-28T10:04:08;3.93;;;3.40;;
16504;SDS011;8365;51.030;4.696;2023-02-28T10:06:43;3.83;;;3.50;;
16504;SDS011;8365;51.030;4.696;2023-02-28T10:09:19;4.43;;;3.07;;
16504;SDS011;8365;51.030;4.696;2023-02-28T10:11:54;3.50;;;3.20;;
16504;SDS011;8365;51.030;4.696;2023-02-28T10:14:29;4.13;;;2.87;;
16504;SDS011;8365;51.030;4.696;2023-02-28T10:17:08;3.40;;;3.10;;
16504;SDS011;8365;51.030;4.696;2023-02-28T10:22:45;3.47;;;3.17;;
16504;SDS011;8365;51.030;4.696;2023-02-28T10:25:27;4.07;;;3.67;;
16504;SDS011;8365;51.030;4.696;2023-02-28T10:28:01;3.80;;;3.40;;
16504;SDS011;8365;51.030;4.696;2023-02-28T10:30:40;3.47;;;3.17;;
16504;SDS011;8365;51.030;4.696;2023-02-28T10:33:28;3.80;;;3.47;;
16504;SDS011;8365;51.030;4.696;2023-02-28T10:36:01;6.90;;;4.03;;
16504;SDS011;8365;51.030;4.696;2023-02-28T10:38:34;5.10;;;4.07;;
16504;SDS011;8365;51.030;4.696;2023-02-28T10:41:10;7.90;;;3.60;;
16504;SDS011;8365;51.030;4.696;2023-02-28T10:43:44;4.63;;;3.37;;
16504;SDS011;8365;51.030;4.696;2023-02-28T10:46:20;7.80;;;3.77;;
16504;SDS011;8365;51.030;4.696;2023-02-28T10:49:01;4.20;;;3.80;;
16504;SDS011;8365;51.030;4.696;2023-02-28T10:51:36;4.87;;;3.67;;
16504;SDS011;8365;51.030;4.696;2023-02-28T10:54:16;3.83;;;3.47;;
16504;SDS011;8365;51.030;4.696;2023-02-28T10:59:51;6.53;;;3.83;;
16504;SDS011;8365;51.030;4.696;2023-02-28T11:05:21;5.47;;;3.67;;
16504;SDS011;8365;51.030;4.696;2023-02-28T11:08:12;5.17;;;3.47;;
16504;SDS011;8365;51.030;4.696;2023-02-28T11:10:46;4.40;;;3.20;;
16504;SDS011;8365;51.030;4.696;2023-02-28T11:13:31;8.50;;;3.40;;
16504;SDS011;8365;51.030;4.696;2023-02-28T11:16:09;7.27;;;4.37;;
16504;SDS011;8365;51.030;4.696;2023-02-28T11:18:42;5.77;;;4.77;;
16504;SDS011;8365;51.030;4.696;2023-02-28T11:21:16;3.87;;;3.50;;
16504;SDS011;8365;51.030;4.696;2023-02-28T11:23:51;5.47;;;3.17;;
16504;SDS011;8365;51.030;4.696;2023-02-28T11:26:37;3.30;;;3.00;;
16504;SDS011;8365;51.030;4.696;2023-02-28T11:37:46;3.63;;;3.23;;
16504;SDS011;8365;51.030;4.696;2023-02-28T11:51:34;3.30;;;3.00;;
16504;SDS011;8365;51.030;4.696;2023-02-28T11:54:12;4.07;;;3.30;;
16504;SDS011;8365;51.030;4.696;2023-02-28T12:05:24;4.57;;;3.10;;
16504;SDS011;8365;51.030;4.696;2023-02-28T12:19:48;2.97;;;2.78;;
16504;SDS011;8365;51.030;4.696;2023-02-28T12:22:29;3.30;;;3.07;;
16504;SDS011;8365;51.030;4.696;2023-02-28T12:25:08;4.25;;;3.67;;
16504;SDS011;8365;51.030;4.696;2023-02-28T12:27:51;4.30;;;3.30;;
16504;SDS011;8365;51.030;4.696;2023-02-28T12:30:30;3.47;;;3.05;;
16504;SDS011;8365;51.030;4.696;2023-02-28T12:33:12;3.38;;;3.08;;
16504;SDS011;8365;51.030;4.696;2023-02-28T12:35:49;3.55;;;3.25;;
16504;SDS011;8365;51.030;4.696;2023-02-28T12:38:29;3.47;;;3.13;;
16504;SDS011;8365;51.030;4.696;2023-02-28T12:41:13;3.53;;;3.22;;
16504;SDS011;8365;51.030;4.696;2023-02-28T12:43:49;3.65;;;3.35;;
16504;SDS011;8365;51.030;4.696;2023-02-28T12:46:33;3.38;;;3.15;;
16504;SDS011;8365;51.030;4.696;2023-02-28T12:49:17;3.87;;;3.57;;
16504;SDS011;8365;51.030;4.696;2023-02-28T12:52:01;3.90;;;3.60;;
16504;SDS011;8365;51.030;4.696;2023-02-28T13:00:16;4.23;;;3.90;;
16504;SDS011;8365;51.030;4.696;2023-02-28T13:11:03;13.63;;;12.43;;
16504;SDS011;8365;51.030;4.696;2023-02-28T13:13:33;5.93;;;3.90;;
16504;SDS011;8365;51.030;4.696;2023-02-28T13:16:05;4.13;;;3.60;;
16504;SDS011;8365;51.030;4.696;2023-02-28T13:18:38;3.47;;;3.27;;
16504;SDS011;8365;51.030;4.696;2023-02-28T13:21:28;4.20;;;3.53;;
16504;SDS011;8365;51.030;4.696;2023-02-28T13:24:01;3.58;;;3.28;;
16504;SDS011;8365;51.030;4.696;2023-02-28T13:34:37;4.50;;;3.77;;
16504;SDS011;8365;51.030;4.696;2023-02-28T13:39:56;3.77;;;3.47;;
16504;SDS011;8365;51.030;4.696;2023-02-28T13:47:43;4.20;;;3.80;;
16504;SDS011;8365;51.030;4.696;2023-02-28T13:50:34;4.77;;;4.27;;
16504;SDS011;8365;51.030;4.696;2023-02-28T13:58:42;4.13;;;3.83;;
16504;SDS011;8365;51.030;4.696;2023-02-28T14:01:26;4.23;;;3.93;;
16504;SDS011;8365;51.030;4.696;2023-02-28T14:06:34;5.30;;;4.80;;
16504;SDS011;8365;51.030;4.696;2023-02-28T14:11:46;5.57;;;3.90;;
16504;SDS011;8365;51.030;4.696;2023-02-28T14:17:06;4.43;;;4.13;;
16504;SDS011;8365;51.030;4.696;2023-02-28T14:19:45;4.47;;;4.07;;
16504;SDS011;8365;51.030;4.696;2023-02-28T14:22:39;12.07;;;4.40;;
16504;SDS011;8365;51.030;4.696;2023-02-28T14:31:09;4.67;;;4.27;;
16504;SDS011;8365;51.030;4.696;2023-02-28T14:37:05;5.20;;;3.90;;
16504;SDS011;8365;51.030;4.696;2023-02-28T14:39:40;3.73;;;3.43;;
16504;SDS011;8365;51.030;4.696;2023-02-28T14:42:33;4.47;;;4.07;;
16504;SDS011;8365;51.030;4.696;2023-02-28T14:45:05;6.67;;;3.87;;
16504;SDS011;8365;51.030;4.696;2023-02-28T14:47:36;4.60;;;4.20;;
16504;SDS011;8365;51.030;4.696;2023-02-28T14:50:17;4.17;;;3.80;;
16504;SDS011;8365;51.030;4.696;2023-02-28T14:52:53;6.93;;;4.83;;
16504;SDS011;8365;51.030;4.696;2023-02-28T14:55:31;5.30;;;4.80;;
16504;SDS011;8365;51.030;4.696;2023-02-28T14:58:05;6.17;;;4.10;;
16504;SDS011;8365;51.030;4.696;2023-02-28T15:00:40;4.27;;;3.97;;
16504;SDS011;8365;51.030;4.696;2023-02-28T15:03:19;4.30;;;3.90;;
16504;SDS011;8365;51.030;4.696;2023-02-28T15:06:06;5.07;;;4.67;;
16504;SDS011;8365;51.030;4.696;2023-02-28T15:08:44;5.50;;;4.63;;
16504;SDS011;8365;51.030;4.696;2023-02-28T15:11:16;6.67;;;4.40;;
16504;SDS011;8365;51.030;4.696;2023-02-28T15:13:50;5.23;;;4.73;;
16504;SDS011;8365;51.030;4.696;2023-02-28T15:16:43;5.67;;;4.87;;
16504;SDS011;8365;51.030;4.696;2023-02-28T15:19:16;4.63;;;4.23;;
16504;SDS011;8365;51.030;4.696;2023-02-28T15:22:04;5.10;;;4.10;;
16504;SDS011;8365;51.030;4.696;2023-02-28T15:24:48;5.03;;;4.53;;
16504;SDS011;8365;51.030;4.696;2023-02-28T15:27:22;4.60;;;4.20;;
16504;SDS011;8365;51.030;4.696;2023-02-28T15:29:57;4.90;;;4.50;;
16504;SDS011;8365;51.030;4.696;2023-02-28T15:32:36;5.13;;;4.73;;
16504;SDS011;8365;51.030;4.696;2023-02-28T15:35:28;7.73;;;6.30;;
16504;SDS011;8365;51.030;4.696;2023-02-28T15:38:02;5.73;;;5.17;;
16504;SDS011;8365;51.030;4.696;2023-02-28T15:40:45;6.47;;;4.40;;
16504;SDS011;8365;51.030;4.696;2023-02-28T15:48:29;6.63;;;4.50;;
16504;SDS011;8365;51.030;4.696;2023-02-28T15:51:06;6.03;;;3.83;;
16504;SDS011;8365;51.030;4.696;2023-02-28T15:53:41;5.20;;;4.70;;
16504;SDS011;8365;51.030;4.696;2023-02-28T15:58:57;5.50;;;5.00;;
16504;SDS011;8365;51.030;4.696;2023-02-28T16:01:32;6.63;;;6.03;;
16504;SDS011;8365;51.030;4.696;2023-02-28T16:04:17;5.60;;;5.10;;
16504;SDS011;8365;51.030;4.696;2023-02-28T16:09:29;5.97;;;4.57;;
16504;SDS011;8365;51.030;4.696;2023-02-28T16:12:01;4.40;;;4.00;;
16504;SDS011;8365;51.030;4.696;2023-02-28T16:14:33;4.63;;;4.23;;
16504;SDS011;8365;51.030;4.696;2023-02-28T16:17:13;4.30;;;3.90;;
16504;SDS011;8365;51.030;4.696;2023-02-28T16:19:50;4.73;;;4.33;;
16504;SDS011;8365;51.030;4.696;2023-02-28T16:22:21;5.33;;;4.50;;
16504;SDS011;8365;51.030;4.696;2023-02-28T16:24:52;5.57;;;4.93;;
16504;SDS011;8365;51.030;4.696;2023-02-28T16:27:33;4.37;;;3.97;;
16504;SDS011;8365;51.030;4.696;2023-02-28T16:30:07;5.73;;;5.13;;
16504;SDS011;8365;51.030;4.696;2023-02-28T16:32:47;5.03;;;4.50;;
16504;SDS011;8365;51.030;4.696;2023-02-28T16:35:18;5.77;;;4.70;;
16504;SDS011;8365;51.030;4.696;2023-02-28T16:37:52;5.43;;;4.93;;
16504;SDS011;8365;51.030;4.696;2023-02-28T16:40:24;6.50;;;4.60;;
16504;SDS011;8365;51.030;4.696;2023-02-28T16:42:57;5.97;;;4.60;;
16504;SDS011;8365;51.030;4.696;2023-02-28T16:45:29;5.50;;;5.00;;
16504;SDS011;8365;51.030;4.696;2023-02-28T16:48:00;7.03;;;5.47;;
16504;SDS011;8365;51.030;4.696;2023-02-28T16:50:30;6.50;;;5.17;;
16504;SDS011;8365;51.030;4.696;2023-02-28T16:53:02;5.57;;;4.73;;
16504;SDS011;8365;51.030;4.696;2023-02-28T16:55:33;7.07;;;6.27;;
16504;SDS011;8365;51.030;4.696;2023-02-28T16:58:05;9.07;;;7.10;;
16504;SDS011;8365;51.030;4.696;2023-02-28T17:00:35;8.60;;;7.80;;
16504;SDS011;8365;51.030;4.696;2023-02-28T17:03:08;5.50;;;5.10;;
16504;SDS011;8365;51.030;4.696;2023-02-28T17:05:58;7.80;;;5.87;;
16504;SDS011;8365;51.030;4.696;2023-02-28T17:08:29;16.00;;;12.20;;
16504;SDS011;8365;51.030;4.696;2023-02-28T17:11:01;8.83;;;6.27;;
16504;SDS011;8365;51.030;4.696;2023-02-28T17:13:32;14.13;;;12.80;;
16504;SDS011;8365;51.030;4.696;2023-02-28T17:16:04;7.80;;;5.83;;
16504;SDS011;8365;51.030;4.696;2023-02-28T17:18:35;8.90;;;5.80;;
16504;SDS011;8365;51.030;4.696;2023-02-28T17:21:10;7.70;;;6.67;;
16504;SDS011;8365;51.030;4.696;2023-02-28T17:23:43;9.37;;;6.63;;
16504;SDS011;8365;51.030;4.696;2023-02-28T17:26:15;6.50;;;5.90;;
16504;SDS011;8365;51.030;4.696;2023-02-28T17:28:51;8.07;;;6.53;;
16504;SDS011;8365;51.030;4.696;2023-02-28T17:31:25;9.27;;;8.33;;
16504;SDS011;8365;51.030;4.696;2023-02-28T17:33:57;8.70;;;7.00;;
16504;SDS011;8365;51.030;4.696;2023-02-28T17:36:27;7.50;;;6.60;;
16504;SDS011;8365;51.030;4.696;2023-02-28T17:38:58;7.13;;;6.23;;
16504;SDS011;8365;51.030;4.696;2023-02-28T17:41:28;7.37;;;6.53;;
16504;SDS011;8365;51.030;4.696;2023-02-28T17:44:00;7.97;;;6.93;;
16504;SDS011;8365;51.030;4.696;2023-02-28T17:46:33;8.87;;;5.83;;
16504;SDS011;8365;51.030;4.696;2023-02-28T17:49:04;6.60;;;6.00;;
16504;SDS011;8365;51.030;4.696;2023-02-28T17:51:35;7.30;;;6.40;;